Wallis, Texas
Current Conditions -  °F | °C
As of 4:15 PM on Saturday 20 Dec 2014 (Local Time) from KELA Reporting Station
Overcast Overcast  
Wind Chill: 12°   Ceiling: 1400
Heat Index: 12°   Visibility: 10mi
Dew Point: 10°   Wind: 9mph
Humidity: 88%   Direction: 20°NNE
Pressure: 30.15"   Gusts: NA
Location:  29.63°N, 96.07°W
Report Text: KELA 202215Z AUTO 02008KT 10SM OVC014 12/10 A3015 RMK AO2 T01210101
Loading
Personal Weather Stations






























Interactive Weather Map New forecast layout! Learn more

10-Day Weather Forecast

Advertisements
Track Severe Weather on mobile